sensor_id;sensor_type;location;lat;lon;timestamp;P1;durP1;ratioP1;P2;durP2;ratioP2
15679;SDS011;15488;48.114;11.532;2023-02-28T00:01:24;2.63;;;1.93;;
15679;SDS011;15488;48.114;11.532;2023-02-28T00:03:52;2.50;;;1.70;;
15679;SDS011;15488;48.114;11.532;2023-02-28T00:06:21;2.97;;;1.80;;
15679;SDS011;15488;48.114;11.532;2023-02-28T00:08:49;2.50;;;1.70;;
15679;SDS011;15488;48.114;11.532;2023-02-28T00:11:16;2.47;;;1.63;;
15679;SDS011;15488;48.114;11.532;2023-02-28T00:13:45;1.90;;;1.63;;
15679;SDS011;15488;48.114;11.532;2023-02-28T00:16:13;3.70;;;1.70;;
15679;SDS011;15488;48.114;11.532;2023-02-28T00:18:42;2.60;;;1.63;;
15679;SDS011;15488;48.114;11.532;2023-02-28T00:21:09;3.83;;;1.80;;
15679;SDS011;15488;48.114;11.532;2023-02-28T00:23:38;3.27;;;1.70;;
15679;SDS011;15488;48.114;11.532;2023-02-28T00:26:05;3.67;;;2.30;;
15679;SDS011;15488;48.114;11.532;2023-02-28T00:28:33;3.60;;;2.40;;
15679;SDS011;15488;48.114;11.532;2023-02-28T00:31:02;3.60;;;2.33;;
15679;SDS011;15488;48.114;11.532;2023-02-28T00:33:30;3.07;;;2.00;;
15679;SDS011;15488;48.114;11.532;2023-02-28T00:36:01;2.77;;;1.73;;
15679;SDS011;15488;48.114;11.532;2023-02-28T00:38:32;1.97;;;1.63;;
15679;SDS011;15488;48.114;11.532;2023-02-28T00:41:01;3.07;;;1.87;;
15679;SDS011;15488;48.114;11.532;2023-02-28T00:43:30;2.63;;;1.80;;
15679;SDS011;15488;48.114;11.532;2023-02-28T00:45:58;3.17;;;2.10;;
15679;SDS011;15488;48.114;11.532;2023-02-28T00:48:25;4.47;;;2.63;;
15679;SDS011;15488;48.114;11.532;2023-02-28T00:50:53;3.57;;;2.33;;
15679;SDS011;15488;48.114;11.532;2023-02-28T00:53:20;2.27;;;1.77;;
15679;SDS011;15488;48.114;11.532;2023-02-28T00:55:48;2.50;;;1.80;;
15679;SDS011;15488;48.114;11.532;2023-02-28T00:58:17;3.40;;;1.73;;
15679;SDS011;15488;48.114;11.532;2023-02-28T01:00:45;3.97;;;1.93;;
15679;SDS011;15488;48.114;11.532;2023-02-28T01:03:13;3.67;;;1.80;;
15679;SDS011;15488;48.114;11.532;2023-02-28T01:05:42;2.73;;;1.70;;
15679;SDS011;15488;48.114;11.532;2023-02-28T01:08:10;3.23;;;1.90;;
15679;SDS011;15488;48.114;11.532;2023-02-28T01:10:38;2.53;;;1.77;;
15679;SDS011;15488;48.114;11.532;2023-02-28T01:13:06;2.23;;;1.70;;
15679;SDS011;15488;48.114;11.532;2023-02-28T01:15:35;3.83;;;2.03;;
15679;SDS011;15488;48.114;11.532;2023-02-28T01:18:02;2.87;;;2.00;;
15679;SDS011;15488;48.114;11.532;2023-02-28T01:20:30;2.63;;;1.90;;
15679;SDS011;15488;48.114;11.532;2023-02-28T01:22:57;2.63;;;1.70;;
15679;SDS011;15488;48.114;11.532;2023-02-28T01:25:25;3.40;;;2.00;;
15679;SDS011;15488;48.114;11.532;2023-02-28T01:27:53;2.70;;;1.90;;
15679;SDS011;15488;48.114;11.532;2023-02-28T01:30:21;2.43;;;1.83;;
15679;SDS011;15488;48.114;11.532;2023-02-28T01:32:50;3.00;;;2.07;;
15679;SDS011;15488;48.114;11.532;2023-02-28T01:35:18;3.20;;;2.10;;
15679;SDS011;15488;48.114;11.532;2023-02-28T01:37:46;3.40;;;2.00;;
15679;SDS011;15488;48.114;11.532;2023-02-28T01:40:13;3.00;;;1.93;;
15679;SDS011;15488;48.114;11.532;2023-02-28T01:42:41;2.53;;;2.03;;
15679;SDS011;15488;48.114;11.532;2023-02-28T01:45:17;3.23;;;2.03;;
15679;SDS011;15488;48.114;11.532;2023-02-28T01:47:50;2.30;;;2.00;;
15679;SDS011;15488;48.114;11.532;2023-02-28T01:50:21;2.10;;;1.80;;
15679;SDS011;15488;48.114;11.532;2023-02-28T01:52:53;3.43;;;2.10;;
15679;SDS011;15488;48.114;11.532;2023-02-28T01:55:23;2.17;;;1.87;;
15679;SDS011;15488;48.114;11.532;2023-02-28T01:57:54;3.37;;;2.03;;
15679;SDS011;15488;48.114;11.532;2023-02-28T02:00:25;3.10;;;2.00;;
15679;SDS011;15488;48.114;11.532;2023-02-28T02:02:57;2.70;;;2.00;;
15679;SDS011;15488;48.114;11.532;2023-02-28T02:05:27;2.80;;;1.83;;
15679;SDS011;15488;48.114;11.532;2023-02-28T02:07:57;2.83;;;2.23;;
15679;SDS011;15488;48.114;11.532;2023-02-28T02:10:29;2.57;;;2.00;;
15679;SDS011;15488;48.114;11.532;2023-02-28T02:13:08;2.97;;;2.00;;
15679;SDS011;15488;48.114;11.532;2023-02-28T02:15:44;3.97;;;2.00;;
15679;SDS011;15488;48.114;11.532;2023-02-28T02:18:22;2.40;;;1.70;;
15679;SDS011;15488;48.114;11.532;2023-02-28T02:24:13;2.13;;;1.70;;
15679;SDS011;15488;48.114;11.532;2023-02-28T02:27:05;3.87;;;2.17;;
15679;SDS011;15488;48.114;11.532;2023-02-28T02:33:18;3.30;;;1.90;;
15679;SDS011;15488;48.114;11.532;2023-02-28T02:36:03;2.80;;;1.80;;
15679;SDS011;15488;48.114;11.532;2023-02-28T02:38:36;3.67;;;2.30;;
15679;SDS011;15488;48.114;11.532;2023-02-28T02:41:12;2.67;;;2.10;;
15679;SDS011;15488;48.114;11.532;2023-02-28T02:43:44;3.33;;;2.07;;
15679;SDS011;15488;48.114;11.532;2023-02-28T02:46:16;3.53;;;1.80;;
15679;SDS011;15488;48.114;11.532;2023-02-28T02:48:46;3.53;;;2.10;;
15679;SDS011;15488;48.114;11.532;2023-02-28T02:51:16;2.83;;;1.90;;
15679;SDS011;15488;48.114;11.532;2023-02-28T02:53:47;3.70;;;2.00;;
15679;SDS011;15488;48.114;11.532;2023-02-28T02:56:21;2.97;;;2.13;;
15679;SDS011;15488;48.114;11.532;2023-02-28T02:58:53;3.07;;;2.00;;
15679;SDS011;15488;48.114;11.532;2023-02-28T03:01:24;3.53;;;2.23;;
15679;SDS011;15488;48.114;11.532;2023-02-28T03:03:55;2.97;;;1.93;;
15679;SDS011;15488;48.114;11.532;2023-02-28T03:06:25;3.87;;;2.07;;
15679;SDS011;15488;48.114;11.532;2023-02-28T03:08:53;2.97;;;2.00;;
15679;SDS011;15488;48.114;11.532;2023-02-28T03:11:20;2.93;;;1.80;;
15679;SDS011;15488;48.114;11.532;2023-02-28T03:14:00;4.10;;;2.10;;
15679;SDS011;15488;48.114;11.532;2023-02-28T03:16:36;3.40;;;2.00;;
15679;SDS011;15488;48.114;11.532;2023-02-28T03:19:28;3.10;;;2.13;;
15679;SDS011;15488;48.114;11.532;2023-02-28T03:25:07;3.20;;;2.27;;
15679;SDS011;15488;48.114;11.532;2023-02-28T03:27:41;3.57;;;2.17;;
15679;SDS011;15488;48.114;11.532;2023-02-28T03:30:17;2.70;;;2.07;;
15679;SDS011;15488;48.114;11.532;2023-02-28T03:32:52;3.30;;;2.20;;
15679;SDS011;15488;48.114;11.532;2023-02-28T03:35:23;3.13;;;2.30;;
15679;SDS011;15488;48.114;11.532;2023-02-28T03:37:55;3.50;;;2.37;;
15679;SDS011;15488;48.114;11.532;2023-02-28T03:40:27;4.13;;;2.30;;
15679;SDS011;15488;48.114;11.532;2023-02-28T03:42:59;4.30;;;2.53;;
15679;SDS011;15488;48.114;11.532;2023-02-28T03:45:32;4.40;;;2.60;;
15679;SDS011;15488;48.114;11.532;2023-02-28T03:48:03;3.60;;;2.40;;
15679;SDS011;15488;48.114;11.532;2023-02-28T03:50:37;3.83;;;2.40;;
15679;SDS011;15488;48.114;11.532;2023-02-28T03:53:10;3.87;;;2.23;;
15679;SDS011;15488;48.114;11.532;2023-02-28T03:55:42;4.00;;;2.30;;
15679;SDS011;15488;48.114;11.532;2023-02-28T03:58:14;3.80;;;2.50;;
15679;SDS011;15488;48.114;11.532;2023-02-28T04:00:48;3.60;;;2.23;;
15679;SDS011;15488;48.114;11.532;2023-02-28T04:03:21;3.70;;;2.37;;
15679;SDS011;15488;48.114;11.532;2023-02-28T04:05:50;5.17;;;2.93;;
15679;SDS011;15488;48.114;11.532;2023-02-28T04:08:22;4.90;;;2.80;;
15679;SDS011;15488;48.114;11.532;2023-02-28T04:10:51;4.27;;;2.77;;
15679;SDS011;15488;48.114;11.532;2023-02-28T04:13:23;3.77;;;2.50;;
15679;SDS011;15488;48.114;11.532;2023-02-28T04:15:51;4.60;;;2.67;;
15679;SDS011;15488;48.114;11.532;2023-02-28T04:18:18;3.93;;;2.83;;
15679;SDS011;15488;48.114;11.532;2023-02-28T04:20:46;3.37;;;2.50;;
15679;SDS011;15488;48.114;11.532;2023-02-28T04:23:13;3.03;;;2.40;;
15679;SDS011;15488;48.114;11.532;2023-02-28T04:25:42;4.73;;;2.87;;
15679;SDS011;15488;48.114;11.532;2023-02-28T04:28:09;4.40;;;2.70;;
15679;SDS011;15488;48.114;11.532;2023-02-28T04:30:37;4.83;;;3.00;;
15679;SDS011;15488;48.114;11.532;2023-02-28T04:33:05;4.60;;;3.10;;
15679;SDS011;15488;48.114;11.532;2023-02-28T04:35:32;4.23;;;2.83;;
15679;SDS011;15488;48.114;11.532;2023-02-28T04:38:00;3.93;;;2.83;;
15679;SDS011;15488;48.114;11.532;2023-02-28T04:40:27;5.40;;;3.20;;
15679;SDS011;15488;48.114;11.532;2023-02-28T04:42:56;4.33;;;3.00;;
15679;SDS011;15488;48.114;11.532;2023-02-28T04:45:23;5.73;;;3.63;;
15679;SDS011;15488;48.114;11.532;2023-02-28T04:47:51;6.07;;;3.40;;
15679;SDS011;15488;48.114;11.532;2023-02-28T04:50:18;5.87;;;3.20;;
15679;SDS011;15488;48.114;11.532;2023-02-28T04:52:46;5.27;;;3.33;;
15679;SDS011;15488;48.114;11.532;2023-02-28T04:55:14;4.97;;;3.13;;
15679;SDS011;15488;48.114;11.532;2023-02-28T04:57:41;6.27;;;3.70;;
15679;SDS011;15488;48.114;11.532;2023-02-28T05:00:11;5.90;;;4.30;;
15679;SDS011;15488;48.114;11.532;2023-02-28T05:02:41;6.50;;;4.00;;
15679;SDS011;15488;48.114;11.532;2023-02-28T05:05:09;6.07;;;4.07;;
15679;SDS011;15488;48.114;11.532;2023-02-28T05:07:37;7.57;;;4.40;;
15679;SDS011;15488;48.114;11.532;2023-02-28T05:10:04;6.80;;;4.17;;
15679;SDS011;15488;48.114;11.532;2023-02-28T05:12:32;6.27;;;4.00;;
15679;SDS011;15488;48.114;11.532;2023-02-28T05:15:00;6.03;;;4.17;;
15679;SDS011;15488;48.114;11.532;2023-02-28T05:17:29;5.90;;;3.90;;
15679;SDS011;15488;48.114;11.532;2023-02-28T05:19:56;6.30;;;3.90;;
15679;SDS011;15488;48.114;11.532;2023-02-28T05:22:24;6.87;;;4.07;;
15679;SDS011;15488;48.114;11.532;2023-02-28T05:24:51;5.67;;;4.03;;
15679;SDS011;15488;48.114;11.532;2023-02-28T05:27:19;5.10;;;3.77;;
15679;SDS011;15488;48.114;11.532;2023-02-28T05:29:46;5.80;;;4.00;;
15679;SDS011;15488;48.114;11.532;2023-02-28T05:32:13;7.17;;;4.00;;
15679;SDS011;15488;48.114;11.532;2023-02-28T05:34:42;7.67;;;4.10;;
15679;SDS011;15488;48.114;11.532;2023-02-28T05:37:11;5.73;;;3.73;;
15679;SDS011;15488;48.114;11.532;2023-02-28T05:39:39;7.13;;;4.40;;
15679;SDS011;15488;48.114;11.532;2023-02-28T05:42:07;6.50;;;4.43;;
15679;SDS011;15488;48.114;11.532;2023-02-28T05:44:35;8.30;;;4.33;;
15679;SDS011;15488;48.114;11.532;2023-02-28T05:47:02;7.17;;;4.33;;
15679;SDS011;15488;48.114;11.532;2023-02-28T05:49:30;6.67;;;4.40;;
15679;SDS011;15488;48.114;11.532;2023-02-28T05:51:59;8.07;;;4.67;;
15679;SDS011;15488;48.114;11.532;2023-02-28T05:54:26;6.43;;;4.53;;
15679;SDS011;15488;48.114;11.532;2023-02-28T05:56:53;7.03;;;4.80;;
15679;SDS011;15488;48.114;11.532;2023-02-28T05:59:21;7.10;;;4.70;;
15679;SDS011;15488;48.114;11.532;2023-02-28T06:01:48;7.63;;;5.07;;
15679;SDS011;15488;48.114;11.532;2023-02-28T06:04:18;6.93;;;4.70;;
15679;SDS011;15488;48.114;11.532;2023-02-28T06:06:47;7.77;;;5.10;;
15679;SDS011;15488;48.114;11.532;2023-02-28T06:09:16;8.00;;;5.10;;
15679;SDS011;15488;48.114;11.532;2023-02-28T06:11:45;8.10;;;5.20;;
15679;SDS011;15488;48.114;11.532;2023-02-28T06:14:14;8.63;;;5.27;;
15679;SDS011;15488;48.114;11.532;2023-02-28T06:16:42;8.23;;;5.20;;
15679;SDS011;15488;48.114;11.532;2023-02-28T06:19:10;7.33;;;4.70;;
15679;SDS011;15488;48.114;11.532;2023-02-28T06:21:37;8.90;;;5.23;;
15679;SDS011;15488;48.114;11.532;2023-02-28T06:24:05;7.77;;;5.30;;
15679;SDS011;15488;48.114;11.532;2023-02-28T06:26:35;8.93;;;5.37;;
15679;SDS011;15488;48.114;11.532;2023-02-28T06:29:02;7.53;;;5.17;;
15679;SDS011;15488;48.114;11.532;2023-02-28T06:31:30;7.63;;;5.40;;
15679;SDS011;15488;48.114;11.532;2023-02-28T06:33:57;7.60;;;5.37;;
15679;SDS011;15488;48.114;11.532;2023-02-28T06:36:25;9.30;;;5.50;;
15679;SDS011;15488;48.114;11.532;2023-02-28T06:38:52;9.33;;;5.57;;
15679;SDS011;15488;48.114;11.532;2023-02-28T06:41:21;8.83;;;5.80;;
15679;SDS011;15488;48.114;11.532;2023-02-28T06:43:51;8.50;;;5.43;;
15679;SDS011;15488;48.114;11.532;2023-02-28T06:46:19;9.30;;;5.87;;
15679;SDS011;15488;48.114;11.532;2023-02-28T06:48:47;10.07;;;5.43;;
15679;SDS011;15488;48.114;11.532;2023-02-28T06:51:17;8.80;;;5.53;;
15679;SDS011;15488;48.114;11.532;2023-02-28T06:53:47;8.90;;;6.00;;
15679;SDS011;15488;48.114;11.532;2023-02-28T06:56:15;8.00;;;5.50;;
15679;SDS011;15488;48.114;11.532;2023-02-28T06:58:45;8.27;;;5.60;;
15679;SDS011;15488;48.114;11.532;2023-02-28T07:01:15;9.27;;;5.83;;
15679;SDS011;15488;48.114;11.532;2023-02-28T07:03:44;8.13;;;5.70;;
15679;SDS011;15488;48.114;11.532;2023-02-28T07:06:11;9.53;;;5.97;;
15679;SDS011;15488;48.114;11.532;2023-02-28T07:08:39;8.07;;;5.60;;
15679;SDS011;15488;48.114;11.532;2023-02-28T07:11:06;8.90;;;5.67;;
15679;SDS011;15488;48.114;11.532;2023-02-28T07:13:34;8.43;;;5.67;;
15679;SDS011;15488;48.114;11.532;2023-02-28T07:16:02;7.90;;;5.70;;
15679;SDS011;15488;48.114;11.532;2023-02-28T07:18:34;7.93;;;5.60;;
15679;SDS011;15488;48.114;11.532;2023-02-28T07:21:02;8.97;;;5.80;;
15679;SDS011;15488;48.114;11.532;2023-02-28T07:23:31;8.50;;;5.70;;
15679;SDS011;15488;48.114;11.532;2023-02-28T07:25:58;7.50;;;5.63;;
15679;SDS011;15488;48.114;11.532;2023-02-28T07:28:26;8.13;;;5.83;;
15679;SDS011;15488;48.114;11.532;2023-02-28T07:30:53;9.57;;;5.83;;
15679;SDS011;15488;48.114;11.532;2023-02-28T07:33:21;9.47;;;5.90;;
15679;SDS011;15488;48.114;11.532;2023-02-28T07:35:50;9.67;;;6.20;;
15679;SDS011;15488;48.114;11.532;2023-02-28T07:38:18;8.37;;;5.80;;
15679;SDS011;15488;48.114;11.532;2023-02-28T07:40:45;9.50;;;5.93;;
15679;SDS011;15488;48.114;11.532;2023-02-28T07:43:12;11.23;;;6.87;;
15679;SDS011;15488;48.114;11.532;2023-02-28T07:45:40;9.70;;;7.00;;
15679;SDS011;15488;48.114;11.532;2023-02-28T07:48:07;9.20;;;6.37;;
15679;SDS011;15488;48.114;11.532;2023-02-28T07:50:35;9.73;;;6.37;;
15679;SDS011;15488;48.114;11.532;2023-02-28T07:53:06;10.33;;;5.97;;
15679;SDS011;15488;48.114;11.532;2023-02-28T07:55:34;9.87;;;6.30;;
15679;SDS011;15488;48.114;11.532;2023-02-28T07:58:01;10.70;;;6.30;;
15679;SDS011;15488;48.114;11.532;2023-02-28T08:00:29;8.30;;;5.80;;
15679;SDS011;15488;48.114;11.532;2023-02-28T08:02:57;7.87;;;5.50;;
15679;SDS011;15488;48.114;11.532;2023-02-28T08:05:25;10.10;;;6.47;;
15679;SDS011;15488;48.114;11.532;2023-02-28T08:07:52;9.67;;;6.87;;
15679;SDS011;15488;48.114;11.532;2023-02-28T08:10:21;10.97;;;7.43;;
15679;SDS011;15488;48.114;11.532;2023-02-28T08:12:48;8.00;;;6.23;;
15679;SDS011;15488;48.114;11.532;2023-02-28T08:15:16;9.77;;;6.03;;
15679;SDS011;15488;48.114;11.532;2023-02-28T08:17:43;9.33;;;6.37;;
15679;SDS011;15488;48.114;11.532;2023-02-28T08:20:11;7.80;;;5.93;;
15679;SDS011;15488;48.114;11.532;2023-02-28T08:22:39;9.37;;;6.67;;
15679;SDS011;15488;48.114;11.532;2023-02-28T08:25:07;10.37;;;6.60;;
15679;SDS011;15488;48.114;11.532;2023-02-28T08:27:36;9.50;;;6.47;;
15679;SDS011;15488;48.114;11.532;2023-02-28T08:30:04;10.30;;;6.43;;
15679;SDS011;15488;48.114;11.532;2023-02-28T08:32:32;8.93;;;6.30;;
15679;SDS011;15488;48.114;11.532;2023-02-28T08:35:00;10.93;;;6.63;;
15679;SDS011;15488;48.114;11.532;2023-02-28T08:37:28;11.37;;;6.30;;
15679;SDS011;15488;48.114;11.532;2023-02-28T08:39:55;10.50;;;6.53;;
15679;SDS011;15488;48.114;11.532;2023-02-28T08:42:23;11.50;;;6.93;;
15679;SDS011;15488;48.114;11.532;2023-02-28T08:44:52;10.93;;;6.20;;
15679;SDS011;15488;48.114;11.532;2023-02-28T08:47:19;8.47;;;5.70;;
15679;SDS011;15488;48.114;11.532;2023-02-28T08:49:46;8.93;;;6.23;;
15679;SDS011;15488;48.114;11.532;2023-02-28T08:52:14;10.70;;;6.07;;
15679;SDS011;15488;48.114;11.532;2023-02-28T08:54:41;9.67;;;6.37;;
15679;SDS011;15488;48.114;11.532;2023-02-28T08:57:09;8.87;;;6.23;;
15679;SDS011;15488;48.114;11.532;2023-02-28T08:59:36;8.83;;;6.43;;
15679;SDS011;15488;48.114;11.532;2023-02-28T09:02:05;7.87;;;5.97;;
15679;SDS011;15488;48.114;11.532;2023-02-28T09:04:34;9.20;;;6.67;;
15679;SDS011;15488;48.114;11.532;2023-02-28T09:07:01;9.67;;;6.77;;
15679;SDS011;15488;48.114;11.532;2023-02-28T09:09:29;8.97;;;6.23;;
15679;SDS011;15488;48.114;11.532;2023-02-28T09:11:56;10.20;;;6.53;;
15679;SDS011;15488;48.114;11.532;2023-02-28T09:14:24;12.07;;;7.07;;
15679;SDS011;15488;48.114;11.532;2023-02-28T09:16:52;10.33;;;6.30;;
15679;SDS011;15488;48.114;11.532;2023-02-28T09:19:22;9.23;;;6.60;;
15679;SDS011;15488;48.114;11.532;2023-02-28T09:21:49;10.03;;;6.87;;
15679;SDS011;15488;48.114;11.532;2023-02-28T09:24:17;11.77;;;6.80;;
15679;SDS011;15488;48.114;11.532;2023-02-28T09:26:45;9.93;;;6.30;;
15679;SDS011;15488;48.114;11.532;2023-02-28T09:29:13;9.97;;;7.00;;
15679;SDS011;15488;48.114;11.532;2023-02-28T09:31:41;8.70;;;6.30;;
15679;SDS011;15488;48.114;11.532;2023-02-28T09:34:09;9.30;;;6.53;;
15679;SDS011;15488;48.114;11.532;2023-02-28T09:36:38;8.93;;;6.13;;
15679;SDS011;15488;48.114;11.532;2023-02-28T09:39:05;9.83;;;6.60;;
15679;SDS011;15488;48.114;11.532;2023-02-28T09:41:36;9.43;;;6.53;;
15679;SDS011;15488;48.114;11.532;2023-02-28T09:44:13;8.53;;;6.03;;
15679;SDS011;15488;48.114;11.532;2023-02-28T09:46:47;8.33;;;6.27;;
15679;SDS011;15488;48.114;11.532;2023-02-28T09:49:18;10.83;;;6.47;;
15679;SDS011;15488;48.114;11.532;2023-02-28T09:51:55;8.97;;;6.67;;
15679;SDS011;15488;48.114;11.532;2023-02-28T09:54:27;10.37;;;6.67;;
15679;SDS011;15488;48.114;11.532;2023-02-28T09:56:56;8.87;;;6.27;;
15679;SDS011;15488;48.114;11.532;2023-02-28T09:59:32;8.70;;;6.13;;
15679;SDS011;15488;48.114;11.532;2023-02-28T10:02:29;9.83;;;6.37;;
15679;SDS011;15488;48.114;11.532;2023-02-28T10:05:19;9.27;;;6.30;;
15679;SDS011;15488;48.114;11.532;2023-02-28T10:07:57;10.17;;;6.90;;
15679;SDS011;15488;48.114;11.532;2023-02-28T10:10:35;9.60;;;6.57;;
15679;SDS011;15488;48.114;11.532;2023-02-28T10:13:06;8.70;;;6.47;;
15679;SDS011;15488;48.114;11.532;2023-02-28T10:15:46;9.23;;;6.63;;
15679;SDS011;15488;48.114;11.532;2023-02-28T10:18:19;10.00;;;6.90;;
15679;SDS011;15488;48.114;11.532;2023-02-28T10:20:50;9.33;;;6.60;;
15679;SDS011;15488;48.114;11.532;2023-02-28T10:23:23;10.50;;;6.70;;
15679;SDS011;15488;48.114;11.532;2023-02-28T10:25:55;9.67;;;6.80;;
15679;SDS011;15488;48.114;11.532;2023-02-28T10:28:26;9.63;;;6.73;;
15679;SDS011;15488;48.114;11.532;2023-02-28T10:30:57;11.47;;;6.63;;
15679;SDS011;15488;48.114;11.532;2023-02-28T10:33:29;9.53;;;6.63;;
15679;SDS011;15488;48.114;11.532;2023-02-28T10:35:59;9.10;;;6.50;;
15679;SDS011;15488;48.114;11.532;2023-02-28T10:38:33;9.63;;;6.60;;
15679;SDS011;15488;48.114;11.532;2023-02-28T10:41:03;9.97;;;6.70;;
15679;SDS011;15488;48.114;11.532;2023-02-28T10:43:33;10.23;;;7.07;;
15679;SDS011;15488;48.114;11.532;2023-02-28T10:46:02;9.80;;;6.93;;
15679;SDS011;15488;48.114;11.532;2023-02-28T10:48:38;9.67;;;6.87;;
15679;SDS011;15488;48.114;11.532;2023-02-28T10:51:07;10.90;;;6.70;;
15679;SDS011;15488;48.114;11.532;2023-02-28T10:53:47;10.13;;;7.00;;
15679;SDS011;15488;48.114;11.532;2023-02-28T10:56:17;9.63;;;7.00;;
15679;SDS011;15488;48.114;11.532;2023-02-28T10:58:54;9.77;;;6.70;;
15679;SDS011;15488;48.114;11.532;2023-02-28T11:01:24;10.50;;;6.80;;
15679;SDS011;15488;48.114;11.532;2023-02-28T11:04:02;9.63;;;6.87;;
15679;SDS011;15488;48.114;11.532;2023-02-28T11:06:30;10.17;;;6.63;;
15679;SDS011;15488;48.114;11.532;2023-02-28T11:09:03;10.97;;;7.00;;
15679;SDS011;15488;48.114;11.532;2023-02-28T11:11:42;10.47;;;6.80;;
15679;SDS011;15488;48.114;11.532;2023-02-28T11:14:16;8.90;;;5.90;;
15679;SDS011;15488;48.114;11.532;2023-02-28T11:16:46;8.97;;;6.30;;
15679;SDS011;15488;48.114;11.532;2023-02-28T11:19:17;9.23;;;6.50;;
15679;SDS011;15488;48.114;11.532;2023-02-28T11:21:51;10.57;;;6.50;;
15679;SDS011;15488;48.114;11.532;2023-02-28T11:24:24;8.33;;;6.37;;
15679;SDS011;15488;48.114;11.532;2023-02-28T11:26:54;9.63;;;6.73;;
15679;SDS011;15488;48.114;11.532;2023-02-28T11:29:23;9.00;;;6.43;;
15679;SDS011;15488;48.114;11.532;2023-02-28T11:34:45;9.83;;;6.80;;
15679;SDS011;15488;48.114;11.532;2023-02-28T11:37:25;9.93;;;6.97;;
15679;SDS011;15488;48.114;11.532;2023-02-28T11:39:56;9.17;;;6.37;;
15679;SDS011;15488;48.114;11.532;2023-02-28T11:42:28;9.17;;;6.77;;
15679;SDS011;15488;48.114;11.532;2023-02-28T11:45:12;10.13;;;6.63;;
15679;SDS011;15488;48.114;11.532;2023-02-28T11:47:48;11.73;;;6.77;;
15679;SDS011;15488;48.114;11.532;2023-02-28T11:50:36;11.40;;;6.80;;
15679;SDS011;15488;48.114;11.532;2023-02-28T11:53:11;8.83;;;5.97;;
15679;SDS011;15488;48.114;11.532;2023-02-28T11:55:47;9.70;;;6.47;;
15679;SDS011;15488;48.114;11.532;2023-02-28T11:58:23;10.27;;;6.27;;
15679;SDS011;15488;48.114;11.532;2023-02-28T12:01:08;11.07;;;7.37;;
15679;SDS011;15488;48.114;11.532;2023-02-28T12:03:44;8.37;;;6.07;;
15679;SDS011;15488;48.114;11.532;2023-02-28T12:06:20;9.57;;;6.17;;
15679;SDS011;15488;48.114;11.532;2023-02-28T12:08:54;10.17;;;6.70;;
15679;SDS011;15488;48.114;11.532;2023-02-28T12:11:36;9.10;;;6.60;;
15679;SDS011;15488;48.114;11.532;2023-02-28T12:14:19;10.47;;;6.57;;
15679;SDS011;15488;48.114;11.532;2023-02-28T12:17:10;12.50;;;6.53;;
15679;SDS011;15488;48.114;11.532;2023-02-28T12:19:48;10.07;;;6.57;;
15679;SDS011;15488;48.114;11.532;2023-02-28T12:22:29;10.60;;;7.30;;
15679;SDS011;15488;48.114;11.532;2023-02-28T12:25:15;11.93;;;7.27;;
15679;SDS011;15488;48.114;11.532;2023-02-28T12:27:56;10.80;;;7.40;;
15679;SDS011;15488;48.114;11.532;2023-02-28T12:30:24;12.13;;;6.13;;
15679;SDS011;15488;48.114;11.532;2023-02-28T12:32:55;12.53;;;7.40;;
15679;SDS011;15488;48.114;11.532;2023-02-28T12:35:31;11.77;;;7.40;;
15679;SDS011;15488;48.114;11.532;2023-02-28T12:38:02;12.13;;;7.80;;
15679;SDS011;15488;48.114;11.532;2023-02-28T12:40:40;13.00;;;7.20;;
15679;SDS011;15488;48.114;11.532;2023-02-28T12:43:12;11.03;;;7.20;;
15679;SDS011;15488;48.114;11.532;2023-02-28T12:45:43;10.63;;;7.30;;
15679;SDS011;15488;48.114;11.532;2023-02-28T12:48:15;11.27;;;7.63;;
15679;SDS011;15488;48.114;11.532;2023-02-28T12:50:46;12.30;;;7.70;;
15679;SDS011;15488;48.114;11.532;2023-02-28T12:53:17;10.87;;;7.77;;
15679;SDS011;15488;48.114;11.532;2023-02-28T12:55:53;9.27;;;6.93;;
15679;SDS011;15488;48.114;11.532;2023-02-28T12:58:31;9.27;;;7.23;;
15679;SDS011;15488;48.114;11.532;2023-02-28T13:07:35;10.60;;;8.23;;
15679;SDS011;15488;48.114;11.532;2023-02-28T13:10:42;11.23;;;8.80;;
15679;SDS011;15488;48.114;11.532;2023-02-28T13:13:17;9.57;;;7.83;;
15679;SDS011;15488;48.114;11.532;2023-02-28T13:16:03;10.07;;;8.30;;
15679;SDS011;15488;48.114;11.532;2023-02-28T13:18:33;10.03;;;8.73;;
15679;SDS011;15488;48.114;11.532;2023-02-28T13:21:04;8.50;;;7.57;;
15679;SDS011;15488;48.114;11.532;2023-02-28T13:23:41;9.73;;;8.23;;
15679;SDS011;15488;48.114;11.532;2023-02-28T13:29:32;10.17;;;8.20;;
15679;SDS011;15488;48.114;11.532;2023-02-28T13:35:13;10.90;;;8.70;;
15679;SDS011;15488;48.114;11.532;2023-02-28T13:38:09;10.83;;;8.90;;
15679;SDS011;15488;48.114;11.532;2023-02-28T13:40:48;11.67;;;8.47;;
15679;SDS011;15488;48.114;11.532;2023-02-28T13:43:16;10.43;;;8.37;;
15679;SDS011;15488;48.114;11.532;2023-02-28T13:46:04;11.27;;;8.60;;
15679;SDS011;15488;48.114;11.532;2023-02-28T13:48:35;12.43;;;8.83;;
15679;SDS011;15488;48.114;11.532;2023-02-28T13:54:05;12.23;;;8.93;;
15679;SDS011;15488;48.114;11.532;2023-02-28T13:56:44;11.43;;;8.00;;
15679;SDS011;15488;48.114;11.532;2023-02-28T13:59:20;9.87;;;7.83;;
15679;SDS011;15488;48.114;11.532;2023-02-28T14:01:58;11.27;;;8.23;;
15679;SDS011;15488;48.114;11.532;2023-02-28T14:04:41;11.30;;;8.23;;
15679;SDS011;15488;48.114;11.532;2023-02-28T14:07:21;9.73;;;7.43;;
15679;SDS011;15488;48.114;11.532;2023-02-28T14:09:55;15.03;;;9.70;;
15679;SDS011;15488;48.114;11.532;2023-02-28T14:18:16;11.07;;;7.93;;
15679;SDS011;15488;48.114;11.532;2023-02-28T14:20:47;10.43;;;7.97;;
15679;SDS011;15488;48.114;11.532;2023-02-28T14:26:23;10.20;;;7.67;;
15679;SDS011;15488;48.114;11.532;2023-02-28T14:29:14;12.43;;;8.53;;
15679;SDS011;15488;48.114;11.532;2023-02-28T14:31:58;10.30;;;8.23;;
15679;SDS011;15488;48.114;11.532;2023-02-28T14:34:39;10.60;;;8.40;;
15679;SDS011;15488;48.114;11.532;2023-02-28T14:37:19;13.23;;;10.13;;
15679;SDS011;15488;48.114;11.532;2023-02-28T14:39:52;10.97;;;8.80;;
15679;SDS011;15488;48.114;11.532;2023-02-28T14:42:29;12.93;;;9.50;;
15679;SDS011;15488;48.114;11.532;2023-02-28T14:44:59;11.33;;;8.37;;
15679;SDS011;15488;48.114;11.532;2023-02-28T14:47:27;10.10;;;7.93;;
15679;SDS011;15488;48.114;11.532;2023-02-28T14:49:57;10.73;;;8.43;;
15679;SDS011;15488;48.114;11.532;2023-02-28T14:52:27;11.57;;;9.00;;
15679;SDS011;15488;48.114;11.532;2023-02-28T14:54:57;10.73;;;8.13;;
15679;SDS011;15488;48.114;11.532;2023-02-28T14:57:27;10.07;;;8.17;;
15679;SDS011;15488;48.114;11.532;2023-02-28T14:59:59;9.77;;;7.93;;
15679;SDS011;15488;48.114;11.532;2023-02-28T15:02:35;9.10;;;7.43;;
15679;SDS011;15488;48.114;11.532;2023-02-28T15:05:10;8.73;;;7.50;;
15679;SDS011;15488;48.114;11.532;2023-02-28T15:10:38;9.57;;;7.77;;
15679;SDS011;15488;48.114;11.532;2023-02-28T15:13:12;15.70;;;11.43;;
15679;SDS011;15488;48.114;11.532;2023-02-28T15:15:45;15.23;;;10.43;;
15679;SDS011;15488;48.114;11.532;2023-02-28T15:18:22;11.23;;;8.57;;
15679;SDS011;15488;48.114;11.532;2023-02-28T15:20:57;9.27;;;8.07;;
15679;SDS011;15488;48.114;11.532;2023-02-28T15:23:28;10.90;;;8.30;;
15679;SDS011;15488;48.114;11.532;2023-02-28T15:25:57;9.40;;;7.60;;
15679;SDS011;15488;48.114;11.532;2023-02-28T15:28:27;10.07;;;7.60;;
15679;SDS011;15488;48.114;11.532;2023-02-28T15:30:56;9.57;;;7.63;;
15679;SDS011;15488;48.114;11.532;2023-02-28T15:33:25;9.20;;;7.67;;
15679;SDS011;15488;48.114;11.532;2023-02-28T15:36:03;9.23;;;7.77;;